createdAt,value
2022-09-28T00:02:16.196Z,98683.62
2022-09-28T00:04:44.721Z,98676.78
2022-09-28T00:07:13.102Z,98680.25
2022-09-28T00:09:41.692Z,98682.91
2022-09-28T00:12:11.383Z,98675.98
2022-09-28T00:14:42.055Z,98677.81
2022-09-28T00:17:11.816Z,98679.67
2022-09-28T00:19:40.338Z,98682.33
2022-09-28T00:22:08.899Z,98686.91
2022-09-28T00:24:37.721Z,98686.20
2022-09-28T00:27:06.282Z,98688.98
2022-09-28T00:29:36.464Z,98682.27
2022-09-28T00:32:09.426Z,98687.68
2022-09-28T00:34:49.064Z,98679.22
2022-09-28T00:37:23.704Z,98680.20
2022-09-28T00:40:01.238Z,98692.47
2022-09-28T00:42:31.812Z,98682.98
2022-09-28T00:45:06.012Z,98688.27
2022-09-28T00:47:51.099Z,98685.73
2022-09-28T00:50:28.822Z,98678.86
2022-09-28T00:53:07.389Z,98679.92
2022-09-28T00:55:43.427Z,98685.19
2022-09-28T00:58:21.440Z,98681.74
2022-09-28T01:00:54.069Z,98690.55
2022-09-28T01:03:29.736Z,98679.41
2022-09-28T01:06:08.226Z,98682.96
2022-09-28T01:08:39.859Z,98681.26
2022-09-28T01:11:08.486Z,98670.06
2022-09-28T01:13:37.576Z,98669.16
2022-09-28T01:16:12.842Z,98667.45
2022-09-28T01:18:53.243Z,98663.98
2022-09-28T01:21:24.806Z,98665.76
2022-09-28T01:24:16.912Z,98668.37
2022-09-28T01:26:52.582Z,98658.05
2022-09-28T01:29:32.958Z,98658.13
2022-09-28T01:32:10.471Z,98650.34
2022-09-28T01:34:43.740Z,98652.11
2022-09-28T01:37:14.754Z,98642.59
2022-09-28T01:39:48.688Z,98644.33
2022-09-28T01:42:22.144Z,98638.28
2022-09-28T01:44:54.738Z,98641.80
2022-09-28T01:47:26.630Z,98644.33
2022-09-28T01:50:00.820Z,98647.88
2022-09-28T01:52:31.684Z,98647.09
2022-09-28T01:55:07.329Z,98654.91
2022-09-28T01:57:42.330Z,98648.83
2022-09-28T02:00:16.235Z,98658.43
2022-09-28T02:02:48.502Z,98659.27
2022-09-28T02:05:23.724Z,98661.95
2022-09-28T02:07:59.236Z,98662.78
2022-09-28T02:10:33.875Z,98667.09
2022-09-28T02:13:05.120Z,98665.39
2022-09-28T02:15:42.170Z,98664.63
2022-09-28T02:18:11.082Z,98660.25
2022-09-28T02:20:42.550Z,98661.95
2022-09-28T02:23:11.129Z,98664.55
2022-09-28T02:25:45.219Z,98659.34
2022-09-28T02:28:14.964Z,98663.65
2022-09-28T02:30:45.328Z,98653.22
2022-09-28T02:33:18.638Z,98657.64
2022-09-28T02:35:49.475Z,98658.43
2022-09-28T02:38:19.418Z,98656.73
2022-09-28T02:40:57.933Z,98655.83
2022-09-28T02:43:38.210Z,98654.91
2022-09-28T02:46:16.154Z,98648.79
2022-09-28T02:49:20.331Z,98646.18
2022-09-28T02:52:08.237Z,98657.38
2022-09-28T02:54:58.011Z,98654.77
2022-09-28T02:57:37.380Z,98646.03
2022-09-28T03:00:11.495Z,98649.51
2022-09-28T03:02:50.174Z,98649.51
2022-09-28T03:05:21.981Z,98642.52
2022-09-28T03:07:57.585Z,98649.43
2022-09-28T03:10:35.262Z,98646.90
2022-09-28T03:13:05.522Z,98648.59
2022-09-28T03:15:36.128Z,98648.64
2022-09-28T03:18:05.796Z,98656.47
2022-09-28T03:20:34.735Z,98654.77
2022-09-28T03:23:24.927Z,98648.72
2022-09-28T03:25:54.221Z,98659.27
2022-09-28T03:28:23.475Z,98657.52
2022-09-28T03:30:52.374Z,98654.05
2022-09-28T03:33:26.844Z,98654.91
2022-09-28T03:35:55.452Z,98652.30
2022-09-28T03:38:24.960Z,98653.14
2022-09-28T03:40:59.334Z,98654.05
2022-09-28T03:43:29.828Z,98659.34
2022-09-28T03:46:01.723Z,98659.41
2022-09-28T03:48:37.120Z,98652.50
2022-09-28T03:51:09.546Z,98658.66
2022-09-28T03:53:40.096Z,98663.99
2022-09-28T03:56:12.585Z,98664.94
2022-09-28T03:58:41.454Z,98663.24
2022-09-28T04:01:16.914Z,98662.52
2022-09-28T04:03:47.578Z,98670.42
2022-09-28T04:06:16.449Z,98667.02
2022-09-28T04:08:45.059Z,98673.21
2022-09-28T04:11:13.654Z,98668.91
2022-09-28T04:13:42.771Z,98673.33
2022-09-28T04:16:15.664Z,98680.35
2022-09-28T04:18:48.357Z,98673.51
2022-09-28T04:21:38.118Z,98669.31
2022-09-28T04:24:11.833Z,98674.53
2022-09-28T04:26:40.480Z,98669.38
2022-09-28T04:29:16.784Z,98677.31
2022-09-28T04:31:57.509Z,98679.99
2022-09-28T04:34:51.292Z,98673.98
2022-09-28T04:37:19.746Z,98673.98
2022-09-28T04:39:48.718Z,98664.42
2022-09-28T04:42:20.306Z,98664.42
2022-09-28T04:44:50.949Z,98667.98
2022-09-28T04:47:19.439Z,98671.45
2022-09-28T04:49:53.822Z,98675.00
2022-09-28T04:52:28.259Z,98672.46
2022-09-28T04:54:56.802Z,98666.45
2022-09-28T04:57:27.430Z,98664.83
2022-09-28T04:59:56.395Z,98668.41
2022-09-28T05:02:24.883Z,98679.66
2022-09-28T05:04:54.818Z,98676.33
2022-09-28T05:07:42.065Z,98672.93
2022-09-28T05:10:10.982Z,98675.61
2022-09-28T05:12:41.265Z,98670.39
2022-09-28T05:15:11.713Z,98666.16
2022-09-28T05:17:40.297Z,98669.67
2022-09-28T05:20:21.974Z,98675.78
2022-09-28T05:22:50.447Z,98677.66
2022-09-28T05:25:19.475Z,98679.47
2022-09-28T05:28:09.217Z,98675.16
2022-09-28T05:31:09.697Z,98675.20
2022-09-28T05:33:53.231Z,98674.36
2022-09-28T05:36:21.875Z,98685.76
2022-09-28T05:38:51.241Z,98677.08
2022-09-28T05:41:20.445Z,98678.84
2022-09-28T05:43:51.109Z,98677.94
2022-09-28T05:46:23.346Z,98685.58
2022-09-28T05:48:53.706Z,98689.75
2022-09-28T05:51:24.890Z,98689.75
2022-09-28T05:53:55.929Z,98698.50
2022-09-28T05:56:29.517Z,98703.75
2022-09-28T05:58:58.869Z,98702.05
2022-09-28T06:01:31.050Z,98701.32
2022-09-28T06:04:03.057Z,98703.13
2022-09-28T06:06:36.117Z,98713.52
2022-09-28T06:09:07.359Z,98712.61
2022-09-28T06:12:00.548Z,98716.05
2022-09-28T06:14:49.587Z,98708.30
2022-09-28T06:17:18.412Z,98710.94
2022-09-28T06:19:53.068Z,98710.94
2022-09-28T06:22:27.866Z,98719.63
2022-09-28T06:25:02.562Z,98714.34
2022-09-28T06:27:31.575Z,98715.08
2022-09-28T06:30:03.394Z,98720.91
2022-09-28T06:32:32.223Z,98720.73
2022-09-28T06:35:02.033Z,98715.35
2022-09-28T06:37:32.553Z,98715.06
2022-09-28T06:40:03.145Z,98719.02
2022-09-28T06:42:32.748Z,98722.25
2022-09-28T06:45:24.049Z,98720.33
2022-09-28T06:48:24.871Z,98720.07
2022-09-28T06:50:54.059Z,98721.70
2022-09-28T06:53:29.181Z,98716.48
2022-09-28T06:56:02.289Z,98726.88
2022-09-28T06:58:31.871Z,98730.21
2022-09-28T07:01:01.671Z,98736.00
2022-09-28T07:03:35.355Z,98738.13
2022-09-28T07:06:25.688Z,98738.55
2022-09-28T07:09:31.411Z,98742.48
2022-09-28T07:12:14.166Z,98743.48
2022-09-28T07:14:56.001Z,98736.05
2022-09-28T07:17:25.982Z,98735.02
2022-09-28T07:19:59.047Z,98741.67
2022-09-28T07:22:41.526Z,98731.94
2022-09-28T07:25:14.469Z,98738.87
2022-09-28T07:28:22.045Z,98741.03
2022-09-28T07:31:11.457Z,98746.30
2022-09-28T07:33:55.711Z,98748.28
2022-09-28T07:36:34.923Z,98745.00
2022-09-28T07:39:05.132Z,98743.69
2022-09-28T07:41:35.712Z,98737.69
2022-09-28T07:44:08.455Z,98738.98
2022-09-28T07:46:38.819Z,98739.35
2022-09-28T07:49:14.983Z,98742.55
2022-09-28T07:52:10.275Z,98752.26
2022-09-28T07:54:51.633Z,98757.48
2022-09-28T07:57:39.466Z,98759.47
2022-09-28T08:00:22.292Z,98758.61
2022-09-28T08:02:51.082Z,98768.30
2022-09-28T08:05:24.058Z,98763.84
2022-09-28T08:07:52.891Z,98764.63
2022-09-28T08:10:22.078Z,98772.41
2022-09-28T08:13:08.807Z,98771.30
2022-09-28T08:16:13.724Z,98771.80
2022-09-28T08:18:50.701Z,98773.36
2022-09-28T08:21:38.731Z,98767.58
2022-09-28T08:24:09.882Z,98767.59
2022-09-28T08:26:38.797Z,98764.41
2022-09-28T08:29:10.152Z,98764.75
2022-09-28T08:31:50.969Z,98762.20
2022-09-28T08:34:41.342Z,98761.91
2022-09-28T08:37:39.303Z,98766.02
2022-09-28T08:40:28.454Z,98765.09
2022-09-28T08:43:24.383Z,98776.64
2022-09-28T08:46:29.041Z,98775.75
2022-09-28T08:49:30.571Z,98772.20
2022-09-28T08:52:22.931Z,98776.24
2022-09-28T08:55:02.489Z,98763.95
2022-09-28T08:57:48.114Z,98763.70
2022-09-28T09:00:21.799Z,98773.40
2022-09-28T09:02:50.549Z,98759.42
2022-09-28T09:05:28.724Z,98755.69
2022-09-28T09:08:14.620Z,98751.09
2022-09-28T09:10:51.003Z,98762.08
2022-09-28T09:13:55.526Z,98762.38
2022-09-28T09:16:40.166Z,98756.77
2022-09-28T09:19:41.416Z,98743.98
2022-09-28T09:22:36.626Z,98750.81
2022-09-28T09:25:15.019Z,98748.53
2022-09-28T09:27:57.694Z,98746.50
2022-09-28T09:30:31.906Z,98750.66
2022-09-28T09:33:16.510Z,98755.61
2022-09-28T09:36:18.916Z,98756.09
2022-09-28T09:39:24.749Z,98758.21
2022-09-28T09:42:17.319Z,98765.64
2022-09-28T09:45:20.015Z,98767.12
2022-09-28T09:48:15.001Z,98765.34
2022-09-28T09:50:51.145Z,98775.45
2022-09-28T09:53:28.341Z,98779.16
2022-09-28T09:56:03.080Z,98771.71
2022-09-28T09:58:51.743Z,98784.47
2022-09-28T10:01:40.337Z,98777.25
2022-09-28T10:04:46.861Z,98774.31
2022-09-28T10:07:25.712Z,98782.09
2022-09-28T10:10:02.999Z,98778.95
2022-09-28T10:12:55.572Z,98787.06
2022-09-28T10:15:27.658Z,98782.63
2022-09-28T10:18:27.391Z,98792.49
2022-09-28T10:21:14.331Z,98785.89
2022-09-28T10:23:56.887Z,98782.84
2022-09-28T10:26:35.125Z,98780.34
2022-09-28T10:29:12.016Z,98783.44
2022-09-28T10:31:43.959Z,98779.52
2022-09-28T10:34:29.989Z,98780.05
2022-09-28T10:37:07.447Z,98777.59
2022-09-28T10:39:58.080Z,98773.41
2022-09-28T10:42:37.455Z,98782.11
2022-09-28T10:45:22.002Z,98780.78
2022-09-28T10:47:51.144Z,98776.42
2022-09-28T10:50:29.333Z,98783.31
2022-09-28T10:53:19.550Z,98786.66
2022-09-28T10:56:28.745Z,98787.94
2022-09-28T10:59:24.056Z,98783.03
2022-09-28T11:01:58.022Z,98780.67
2022-09-28T11:04:35.909Z,98772.58
2022-09-28T11:07:15.333Z,98780.63
2022-09-28T11:09:51.095Z,98770.52
2022-09-28T11:12:25.662Z,98765.67
2022-09-28T11:15:02.627Z,98771.28
2022-09-28T11:17:38.110Z,98778.70
2022-09-28T11:20:35.105Z,98779.70
2022-09-28T11:23:22.132Z,98777.25
2022-09-28T11:26:07.598Z,98770.27
2022-09-28T11:28:38.924Z,98780.19
2022-09-28T11:31:15.901Z,98780.13
2022-09-28T11:34:07.569Z,98775.84
2022-09-28T11:37:15.356Z,98786.61
2022-09-28T11:39:54.282Z,98775.76
2022-09-28T11:42:33.323Z,98785.17
2022-09-28T11:45:18.316Z,98782.86
2022-09-28T11:47:54.047Z,98782.53
2022-09-28T11:50:31.018Z,98782.88
2022-09-28T11:53:20.241Z,98786.44
2022-09-28T11:55:56.602Z,98793.27
2022-09-28T11:58:30.885Z,98796.55
2022-09-28T12:01:07.971Z,98792.23
2022-09-28T12:04:02.509Z,98787.08
2022-09-28T12:06:37.504Z,98793.16
2022-09-28T12:09:19.500Z,98790.32
2022-09-28T12:12:24.212Z,98787.86
2022-09-28T12:14:59.755Z,98789.70
2022-09-28T12:17:32.459Z,98792.82
2022-09-28T12:20:12.343Z,98789.91
2022-09-28T12:22:47.196Z,98790.95
2022-09-28T12:25:21.065Z,98787.56
2022-09-28T12:27:56.330Z,98784.38
2022-09-28T12:30:33.558Z,98783.89
2022-09-28T12:33:08.771Z,98786.66
2022-09-28T12:35:48.543Z,98788.06
2022-09-28T12:38:37.828Z,98781.55
2022-09-28T12:41:19.290Z,98781.99
2022-09-28T12:44:08.656Z,98780.93
2022-09-28T12:46:54.044Z,98784.16
2022-09-28T12:50:27.292Z,98781.95
2022-09-28T12:55:43.677Z,98783.66
2022-09-28T12:58:28.958Z,98775.61
2022-09-28T13:01:13.228Z,98772.16
2022-09-28T13:04:05.085Z,98773.37
2022-09-28T13:06:48.723Z,98765.00
2022-09-28T13:09:23.371Z,98769.02
2022-09-28T13:12:18.754Z,98761.95
2022-09-28T13:15:24.418Z,98760.91
2022-09-28T13:18:07.434Z,98760.70
2022-09-28T13:20:54.242Z,98755.38
2022-09-28T13:23:26.214Z,98760.64
2022-09-28T13:26:00.444Z,98760.53
2022-09-28T13:28:31.226Z,98754.17
2022-09-28T13:31:02.792Z,98755.11
2022-09-28T13:33:36.112Z,98752.66
2022-09-28T13:36:25.998Z,98759.77
2022-09-28T13:38:58.894Z,98751.33
2022-09-28T13:41:31.294Z,98756.75
2022-09-28T13:44:24.190Z,98762.28
2022-09-28T13:47:08.111Z,98758.89
2022-09-28T13:49:50.199Z,98761.12
2022-09-28T13:52:34.346Z,98759.09
2022-09-28T13:55:24.488Z,98757.59
2022-09-28T13:58:00.938Z,98758.81
2022-09-28T14:00:36.265Z,98767.22
2022-09-28T14:03:23.015Z,98761.45
2022-09-28T14:06:12.082Z,98758.26
2022-09-28T14:09:04.892Z,98756.73
2022-09-28T14:11:54.077Z,98755.12
2022-09-28T14:14:29.057Z,98760.44
2022-09-28T14:17:50.626Z,98764.34
2022-09-28T14:20:26.210Z,98766.36
2022-09-28T14:23:25.213Z,98770.93
2022-09-28T14:26:07.536Z,98760.69
2022-09-28T14:28:49.579Z,98758.16
2022-09-28T14:31:27.537Z,98756.37
2022-09-28T14:33:59.490Z,98761.45
2022-09-28T14:36:55.422Z,98760.28
2022-09-28T14:39:49.102Z,98761.56
2022-09-28T14:42:23.256Z,98767.89
2022-09-28T14:45:37.978Z,98773.48
2022-09-28T14:48:37.933Z,98767.98
2022-09-28T14:52:20.205Z,98758.82
2022-09-28T14:55:00.592Z,98763.64
2022-09-28T14:57:33.199Z,98765.55
2022-09-28T15:00:24.382Z,98770.12
2022-09-28T15:03:08.916Z,98771.28
2022-09-28T15:05:47.229Z,98775.94
2022-09-28T15:08:22.330Z,98770.08
2022-09-28T15:10:52.890Z,98768.56
2022-09-28T15:13:25.714Z,98767.02
2022-09-28T15:16:03.212Z,98776.73
2022-09-28T15:19:09.885Z,98779.50
2022-09-28T15:21:40.878Z,98788.47
2022-09-28T15:24:31.822Z,98779.83
2022-09-28T15:27:02.102Z,98781.67
2022-09-28T15:29:32.945Z,98775.66
2022-09-28T15:32:03.488Z,98766.25
2022-09-28T15:34:54.507Z,98766.55
2022-09-28T15:37:29.091Z,98770.27
2022-09-28T15:40:00.779Z,98768.80
2022-09-28T15:42:36.703Z,98771.56
2022-09-28T15:45:25.169Z,98770.10
2022-09-28T15:47:58.606Z,98757.24
2022-09-28T15:50:36.371Z,98758.39
2022-09-28T15:53:06.529Z,98754.22
2022-09-28T15:55:42.427Z,98756.23
2022-09-28T15:58:18.723Z,98766.86
2022-09-28T16:00:49.546Z,98770.53
2022-09-28T16:03:28.489Z,98774.16
2022-09-28T16:06:10.714Z,98777.84
2022-09-28T16:08:42.272Z,98770.21
2022-09-28T16:11:16.860Z,98762.59
2022-09-28T16:14:05.651Z,98761.89
2022-09-28T16:16:38.054Z,98756.97
2022-09-28T16:19:06.993Z,98756.41
2022-09-28T16:21:45.766Z,98743.69
2022-09-28T16:24:23.295Z,98741.42
2022-09-28T16:26:59.523Z,98750.50
2022-09-28T16:29:35.272Z,98750.55
2022-09-28T16:32:37.188Z,98753.33
2022-09-28T16:35:21.156Z,98750.94
2022-09-28T16:37:57.333Z,98740.73
2022-09-28T16:40:30.454Z,98745.35
2022-09-28T16:43:04.385Z,98746.48
2022-09-28T16:45:36.078Z,98748.36
2022-09-28T16:48:25.055Z,98745.88
2022-09-28T16:50:54.187Z,98740.78
2022-09-28T16:53:38.501Z,98760.08
2022-09-28T16:56:12.174Z,98771.45
2022-09-28T16:58:48.761Z,98768.84
2022-09-28T17:01:17.435Z,98754.98
2022-09-28T17:03:48.053Z,98744.78
2022-09-28T17:06:20.866Z,98745.78
2022-09-28T17:08:51.181Z,98745.78
2022-09-28T17:11:24.438Z,98749.31
2022-09-28T17:13:58.749Z,98735.45
2022-09-28T17:19:24.624Z,98736.58
2022-09-28T17:21:53.470Z,98736.73
2022-09-28T17:24:22.311Z,98737.66
2022-09-28T17:26:53.032Z,98742.09
2022-09-28T17:29:23.363Z,98747.32
2022-09-28T17:31:54.808Z,98756.94
2022-09-28T17:34:29.540Z,98765.61
2022-09-28T17:37:01.111Z,98768.30
2022-09-28T17:39:31.322Z,98771.95
2022-09-28T17:42:00.000Z,98772.87
2022-09-28T17:44:28.892Z,98770.38
2022-09-28T17:46:58.907Z,98773.94
2022-09-28T17:49:29.166Z,98780.20
2022-09-28T17:52:00.328Z,98779.48
2022-09-28T17:54:29.327Z,98771.78
2022-09-28T17:56:58.909Z,98777.00
2022-09-28T17:59:28.393Z,98772.81
2022-09-28T18:02:02.376Z,98776.48
2022-09-28T18:04:51.297Z,98787.18
2022-09-28T18:07:33.826Z,98799.59
2022-09-28T18:10:12.507Z,98804.15
2022-09-28T18:12:44.872Z,98815.58
2022-09-28T18:15:18.373Z,98819.94
2022-09-28T18:17:47.990Z,98819.17
2022-09-28T18:20:17.934Z,98829.73
2022-09-28T18:22:47.288Z,98832.42
2022-09-28T18:25:19.871Z,98835.27
2022-09-28T18:27:49.119Z,98843.28
2022-09-28T18:30:21.197Z,98845.29
2022-09-28T18:32:55.252Z,98847.17
2022-09-28T18:35:24.925Z,98860.34
2022-09-28T18:37:54.838Z,98865.74
2022-09-28T18:40:24.155Z,98860.81
2022-09-28T18:42:54.981Z,98870.78
2022-09-28T18:45:26.432Z,98869.42
2022-09-28T18:47:55.479Z,98874.02
2022-09-28T18:50:25.889Z,98875.14
2022-09-28T18:53:10.881Z,98876.25
2022-09-28T18:55:42.365Z,98875.72
2022-09-28T18:58:15.860Z,98873.35
2022-09-28T19:00:45.104Z,98875.27
2022-09-28T19:03:14.985Z,98873.69
2022-09-28T19:05:44.727Z,98866.80
2022-09-28T19:08:13.556Z,98866.97
2022-09-28T19:10:44.210Z,98867.11
2022-09-28T19:13:17.573Z,98856.78
2022-09-28T19:15:49.679Z,98854.24
2022-09-28T19:18:19.092Z,98853.44
2022-09-28T19:20:48.023Z,98847.42
2022-09-28T19:23:19.605Z,98832.69
2022-09-28T19:25:48.300Z,98825.84
2022-09-28T19:28:18.647Z,98805.16
2022-09-28T19:30:56.767Z,98817.42
2022-09-28T19:33:25.908Z,98821.80
2022-09-28T19:36:00.611Z,98813.98
2022-09-28T19:38:35.065Z,98813.98
2022-09-28T19:41:10.647Z,98816.59
2022-09-28T19:43:41.867Z,98812.28
2022-09-28T19:46:12.653Z,98815.88
2022-09-28T19:48:41.927Z,98802.92
2022-09-28T19:51:11.526Z,98807.39
2022-09-28T19:53:40.610Z,98804.89
2022-09-28T19:56:10.671Z,98813.67
2022-09-28T19:58:40.206Z,98818.02
2022-09-28T20:01:10.158Z,98815.41
2022-09-28T20:03:39.160Z,98818.95
2022-09-28T20:06:16.436Z,98815.54
2022-09-28T20:08:46.458Z,98825.09
2022-09-28T20:11:15.234Z,98823.45
2022-09-28T20:13:43.910Z,98818.34
2022-09-28T20:16:14.702Z,98829.78
2022-09-28T20:18:50.100Z,98829.05
2022-09-28T20:21:25.170Z,98830.03
2022-09-28T20:23:56.839Z,98824.98
2022-09-28T20:26:27.006Z,98823.38
2022-09-28T20:28:58.438Z,98823.59
2022-09-28T20:31:28.054Z,98826.38
2022-09-28T20:33:57.113Z,98823.09
2022-09-28T20:36:26.117Z,98824.98
2022-09-28T20:38:57.775Z,98820.73
2022-09-28T20:41:27.153Z,98810.51
2022-09-28T20:44:01.577Z,98811.55
2022-09-28T20:46:37.670Z,98817.69
2022-09-28T20:49:07.344Z,98826.48
2022-09-28T20:51:36.922Z,98822.11
2022-09-28T20:54:05.788Z,98817.92
2022-09-28T20:56:38.436Z,98823.16
2022-09-28T20:59:11.501Z,98823.28
2022-09-28T21:01:40.817Z,98821.57
2022-09-28T21:04:11.865Z,98822.49
2022-09-28T21:06:41.992Z,98817.35
2022-09-28T21:09:12.915Z,98814.75
2022-09-28T21:11:41.524Z,98822.55
2022-09-28T21:14:13.330Z,98821.66
2022-09-28T21:16:41.826Z,98821.66
2022-09-28T21:19:13.084Z,98823.45
2022-09-28T21:21:42.125Z,98826.05
2022-09-28T21:24:12.566Z,98824.34
2022-09-28T21:26:41.361Z,98821.74
2022-09-28T21:29:13.657Z,98821.89
2022-09-28T21:31:45.416Z,98821.05
2022-09-28T21:34:18.692Z,98817.64
2022-09-28T21:36:50.605Z,98819.44
2022-09-28T21:39:20.065Z,98816.92
2022-09-28T21:41:49.045Z,98826.57
2022-09-28T21:44:17.831Z,98826.71
2022-09-28T21:46:46.541Z,98839.73
2022-09-28T21:49:15.209Z,98838.92
2022-09-28T21:51:46.453Z,98850.22
2022-09-28T21:54:15.110Z,98848.52
2022-09-28T21:56:43.911Z,98852.91
2022-09-28T21:59:14.805Z,98853.05
2022-09-28T22:01:43.747Z,98857.48
2022-09-28T22:04:13.975Z,98854.12
2022-09-28T22:06:45.595Z,98862.90
2022-09-28T22:09:14.537Z,98861.30
2022-09-28T22:11:43.653Z,98866.52
2022-09-28T22:14:14.633Z,98865.77
2022-09-28T22:16:43.463Z,98874.45
2022-09-28T22:19:13.032Z,98880.59
2022-09-28T22:21:42.904Z,98891.06
2022-09-28T22:24:12.728Z,98881.62
2022-09-28T22:26:41.318Z,98875.66
2022-09-28T22:29:13.111Z,98874.03
2022-09-28T22:31:41.959Z,98875.81
2022-09-28T22:34:12.975Z,98871.56
2022-09-28T22:36:41.962Z,98875.05
2022-09-28T22:39:11.017Z,98873.39
2022-09-28T22:41:41.254Z,98863.02
2022-09-28T22:44:10.165Z,98874.36
2022-09-28T22:46:40.269Z,98872.75
2022-09-28T22:49:12.825Z,98878.84
2022-09-28T22:51:41.640Z,98875.42
2022-09-28T22:54:16.011Z,98878.05
2022-09-28T22:56:45.353Z,98881.58
2022-09-28T22:59:14.454Z,98879.03
2022-09-28T23:01:43.441Z,98874.68
2022-09-28T23:04:13.873Z,98876.44
2022-09-28T23:06:42.677Z,98871.19
2022-09-28T23:09:12.317Z,98872.95
2022-09-28T23:11:41.005Z,98875.55
2022-09-28T23:14:12.842Z,98875.55
2022-09-28T23:16:41.959Z,98881.58
2022-09-28T23:19:11.307Z,98889.42
2022-09-28T23:21:43.038Z,98886.84
2022-09-28T23:24:13.035Z,98883.41
2022-09-28T23:26:41.817Z,98889.50
2022-09-28T23:29:12.919Z,98892.96
2022-09-28T23:31:42.146Z,98890.44
2022-09-28T23:34:11.513Z,98901.77
2022-09-28T23:36:40.719Z,98900.97
2022-09-28T23:39:12.404Z,98907.97
2022-09-28T23:41:41.363Z,98906.21
2022-09-28T23:44:10.397Z,98910.58
2022-09-28T23:46:39.812Z,98928.81
2022-09-28T23:49:08.459Z,98921.95
2022-09-28T23:51:37.441Z,98921.14
2022-09-28T23:54:07.009Z,98926.34
2022-09-28T23:56:35.958Z,98921.97
2022-09-28T23:59:04.753Z,98927.17
